EW9000 Weather Reports


Display with metric or nautical units.
time (UTC)temp
F
wind
direction
speed
MPH
gust
MPH
rain 1hr
in
rain 24hr
in
rain mn
in
humidity
%
barometer
mb
20180814063525 72 192 1.0 2.0 0.00 0.00 0.00 69 1016.9
20180814062518 73 188 0.0 2.0 0.00 0.00 0.00 69 1017.0
20180814061529 73 193 2.0 3.0 0.00 0.00 0.00 69 1017.2
20180814060529 73 202 2.0 3.0 0.00 0.00 0.00 69 1017.2
20180814055522 73 199 2.0 2.0 0.00 0.00 0.00 68 1017.1
20180814054515 73 184 2.0 3.0 0.00 0.00 0.00 68 1017.2
20180814053522 74 212 1.0 2.0 0.00 0.00 0.00 68 1017.2
20180814052516 74 191 1.0 3.0 0.00 0.00 0.00 68 1017.2
20180814051517 74 180 1.0 2.0 0.00 0.00 0.00 68 1017.1
20180814050519 74 176 2.0 3.0 0.00 0.00 0.00 68 1017.1
20180814045519 74 171 2.0 3.0 0.00 0.00 0.00 67 1017.1
20180814044527 75 191 2.0 3.0 0.00 0.00 0.00 66 1017.0
20180814043527 75 182 3.0 4.0 0.00 0.00 0.00 66 1017.0
20180814042522 75 187 2.0 4.0 0.00 0.00 0.00 66 1016.9
20180814041516 75 192 3.0 6.0 0.00 0.00 0.00 66 1016.9
20180814040526 75 172 3.0 4.0 0.00 0.00 0.00 66 1016.8
20180814035516 75 168 2.0 3.0 0.00 0.00 0.00 66 1016.9
20180814034531 76 162 2.0 4.0 0.00 0.00 0.00 65 1016.9
20180814033522 76 138 2.0 3.0 0.00 0.00 0.00 65 1016.9
20180814032515 76 161 1.0 2.0 0.00 0.00 0.00 65 1017.0
20180814031524 77 158 2.0 4.0 0.00 0.00 0.00 64 1017.0
20180814030518 77 162 2.0 4.0 0.00 0.00 0.00 64 1016.9
20180814025529 77 145 2.0 4.0 0.00 0.00 0.00 63 1016.9
20180814024525 78 153 3.0 4.0 0.00 0.00 0.00 63 1016.8
20180814023517 78 172 3.0 4.0 0.00 0.00 0.00 62 1016.8
20180814022523 79 160 3.0 4.0 0.00 0.00 0.00 61 1016.8
20180814021517 79 145 3.0 5.0 0.00 0.00 0.00 61 1016.7
20180814020518 80 160 3.0 4.0 0.00 0.00 0.00 61 1016.6
20180814015531 80 158 2.0 4.0 0.00 0.00 0.00 60 1016.6
20180814014526 81 120 2.0 3.0 0.00 0.00 0.00 59 1016.5
20180814013522 81 163 2.0 4.0 0.00 0.00 0.00 59 1016.5
20180814012533 82 156 2.0 3.0 0.00 0.00 0.00 58 1016.4
20180814011528 82 146 2.0 3.0 0.00 0.00 0.00 57 1016.6
20180814010518 83 137 2.0 3.0 0.00 0.00 0.00 57 1016.5
20180814005525 83 150 2.0 4.0 0.00 0.00 0.00 57 1016.4
20180814004521 84 137 2.0 4.0 0.00 0.00 0.00 56 1016.4
20180814003518 85 138 2.0 3.0 0.00 0.00 0.00 55 1016.4
20180814002520 85 150 1.0 4.0 0.00 0.00 0.00 55 1016.4
20180814001530 86 167 1.0 2.0 0.00 0.00 0.00 54 1016.5
20180814000522 87 135 2.0 3.0 0.00 0.00 0.00 54 1016.4
20180813235532 87 144 1.0 3.0 0.00 0.00 0.00 53 1016.3
20180813234528 87 156 2.0 3.0 0.00 0.00 0.00 52 1016.3
20180813233522 88 121 2.0 3.0 0.00 0.00 0.00 51 1016.3
20180813232518 88 116 2.0 5.0 0.00 0.00 0.00 51 1016.5
20180813231528 89 150 2.0 3.0 0.00 0.00 0.00 49 1016.5
20180813230523 89 190 3.0 6.0 0.00 0.00 0.00 49 1016.6
20180813225520 89 212 3.0 7.0 0.00 0.00 0.00 48 1016.6
20180813224530 90 141 3.0 5.0 0.00 0.00 0.00 48 1016.5
20180813223523 90 167 3.0 5.0 0.00 0.00 0.00 47 1016.5
20180813222516 90 125 4.0 7.0 0.00 0.00 0.00 47 1016.5
20180813221529 90 109 3.0 5.0 0.00 0.00 0.00 46 1016.5
20180813220523 90 181 3.0 5.0 0.00 0.00 0.00 45 1016.5
20180813215533 90 106 3.0 5.0 0.00 0.00 0.00 45 1016.7
20180813214522 90 161 4.0 5.0 0.00 0.00 0.00 46 1016.6
20180813213517 90 152 3.0 4.0 0.00 0.00 0.00 45 1016.7
20180813212518 90 152 5.0 10.0 0.00 0.00 0.00 45 1016.9
20180813211527 90 140 2.0 4.0 0.00 0.00 0.00 45 1016.9
20180813210516 89 34 2.0 4.0 0.00 0.00 0.00 46 1017.1
20180813205531 89 171 4.0 6.0 0.00 0.00 0.00 47 1017.3
20180813204515 89 162 3.0 4.0 0.00 0.00 0.00 47 1017.2
20180813203527 89 176 3.0 6.0 0.00 0.00 0.00 47 1017.2
20180813202519 89 207 1.0 3.0 0.00 0.00 0.00 46 1017.5
20180813201531 89 142 3.0 7.0 0.00 0.00 0.00 46 1017.7
20180813200520 89 192 4.0 7.0 0.00 0.00 0.00 45 1017.9
20180813195519 89 183 3.0 5.0 0.00 0.00 0.00 44 1018.1
20180813194530 89 138 3.0 5.0 0.00 0.00 0.00 45 1018.2
20180813193533 89 145 3.0 5.0 0.00 0.00 0.00 47 1018.3
20180813192526 88 155 2.0 4.0 0.00 0.00 0.00 47 1018.5
20180813191532 88 144 3.0 4.0 0.00 0.00 0.00 49 1018.5
20180813190524 89 132 3.0 5.0 0.00 0.00 0.00 45 1018.7
20180813185524 88 155 3.0 4.0 0.00 0.00 0.00 39 1018.8
20180813184516 88 140 3.0 5.0 0.00 0.00 0.00 48 1018.9
20180813183526 88 133 2.0 5.0 0.00 0.00 0.00 54 1019.0
20180813182521 89 123 3.0 4.0 0.00 0.00 0.00 55 1019.0
20180813181531 89 198 1.0 3.0 0.00 0.00 0.00 58 1019.2
20180813180521 88 180 3.0 5.0 0.00 0.00 0.00 58 1019.4
20180813175520 88 146 3.0 4.0 0.00 0.00 0.00 60 1019.4
20180813174532 88 168 3.0 5.0 0.00 0.00 0.00 58 1019.5
20180813173517 87 166 3.0 6.0 0.00 0.00 0.00 58 1019.6
20180813172529 87 158 3.0 5.0 0.00 0.00 0.00 59 1019.7
20180813171523 87 225 1.0 2.0 0.00 0.00 0.00 60 1019.7
20180813170517 87 169 2.0 5.0 0.00 0.00 0.00 60 1019.7
20180813165527 87 169 2.0 3.0 0.00 0.00 0.00 60 1020.0
20180813164518 86 150 2.0 4.0 0.00 0.00 0.00 61 1020.0
20180813163517 87 232 2.0 6.0 0.00 0.00 0.00 61 1020.0
20180813162523 87 189 3.0 5.0 0.00 0.00 0.00 60 1020.2
20180813161522 87 178 3.0 5.0 0.00 0.00 0.00 60 1020.3
20180813160532 87 173 2.0 3.0 0.00 0.00 0.00 60 1020.3
20180813155522 86 245 2.0 5.0 0.00 0.00 0.00 61 1020.4
20180813154533 86 186 3.0 5.0 0.00 0.00 0.00 61 1020.3
20180813153529 86 165 3.0 5.0 0.00 0.00 0.00 61 1020.3
20180813152522 86 190 1.0 4.0 0.00 0.00 0.00 61 1020.3
20180813151531 85 206 2.0 4.0 0.00 0.00 0.00 61 1020.3
20180813150523 86 204 2.0 2.0 0.00 0.00 0.00 61 1020.3
20180813145517 84 201 1.0 4.0 0.00 0.00 0.00 63 1020.5
20180813144528 83 190 4.0 6.0 0.00 0.00 0.00 63 1020.4
20180813143521 82 265 2.0 2.0 0.00 0.00 0.00 64 1020.4
20180813142532 81 258 2.0 3.0 0.00 0.00 0.00 65 1020.5
20180813141516 79 231 2.0 5.0 0.00 0.00 0.00 67 1020.6
20180813140528 80 249 2.0 2.0 0.00 0.00 0.00 66 1020.6
20180813135521 80 185 3.0 5.0 0.00 0.00 0.00 66 1020.7
20180813134538 79 226 2.0 4.0 0.00 0.00 0.00 66 1020.7
20180813133523 79 200 1.0 4.0 0.00 0.00 0.00 66 1020.8
20180813132516 77 207 2.0 5.0 0.00 0.00 0.00 68 1020.7
20180813131523 76 207 2.0 5.0 0.00 0.00 0.00 69 1020.7
20180813130532 75 235 2.0 3.0 0.00 0.00 0.00 70 1020.7
20180813125530 73 191 3.0 4.0 0.00 0.00 0.00 73 1020.7
20180813124525 71 181 2.0 3.0 0.00 0.00 0.00 75 1020.7
20180813123520 70 187 1.0 2.0 0.00 0.00 0.00 77 1020.7
20180813122532 69 181 1.0 2.0 0.00 0.00 0.00 78 1020.6
20180813121525 69 180 2.0 3.0 0.00 0.00 0.00 79 1020.7
20180813120520 69 182 2.0 3.0 0.00 0.00 0.00 79 1020.6
20180813115530 69 180 2.0 2.0 0.00 0.00 0.00 80 1020.5
20180813114521 69 172 2.0 3.0 0.00 0.00 0.00 80 1020.5
20180813113525 68 177 2.0 2.0 0.00 0.00 0.00 80 1020.5
20180813112519 68 188 2.0 4.0 0.00 0.00 0.00 81 1020.4
20180813111515 68 169 2.0 3.0 0.00 0.00 0.00 81 1020.4
20180813110527 68 159 1.0 2.0 0.00 0.00 0.00 81 1020.4
20180813105520 69 168 2.0 3.0 0.00 0.00 0.00 81 1020.4
20180813104530 68 169 2.0 3.0 0.00 0.00 0.00 81 1020.4
20180813103522 68 173 2.0 2.0 0.00 0.00 0.00 82 1020.4
20180813102529 68 0.0 0.0 0.00 0.00 0.00 82 1020.4
20180813101524 68 135 0.0 1.0 0.00 0.00 0.00 82 1020.4
20180813100532 68 0.0 0.0 0.00 0.00 0.00 82 1020.5
20180813095524 69 180 0.0 1.0 0.00 0.00 0.00 82 1020.5
20180813094519 69 138 1.0 2.0 0.00 0.00 0.00 82 1020.4
20180813093523 69 156 1.0 2.0 0.00 0.00 0.00 82 1020.4
20180813092527 69 165 0.0 1.0 0.00 0.00 0.00 81 1020.3
20180813091535 69 143 1.0 2.0 0.00 0.00 0.00 81 1020.4
20180813090523 70 157 0.0 1.0 0.00 0.00 0.00 81 1020.4
20180813085516 70 168 0.0 2.0 0.00 0.00 0.00 81 1020.4
20180813084521 70 178 1.0 2.0 0.00 0.00 0.00 81 1020.4
20180813083517 70 160 0.0 1.0 0.00 0.00 0.00 80 1020.4
20180813082517 70 156 1.0 2.0 0.00 0.00 0.00 80 1020.4
20180813081530 71 166 1.0 1.0 0.00 0.00 0.00 80 1020.4
20180813080531 71 166 1.0 2.0 0.00 0.00 0.00 80 1020.4
20180813075527 71 175 1.0 3.0 0.00 0.00 0.00 79 1020.5
20180813074519 71 175 2.0 3.0 0.00 0.00 0.00 79 1020.4
20180813073516 71 171 1.0 2.0 0.00 0.00 0.00 79 1020.4
20180813072515 72 185 2.0 2.0 0.00 0.00 0.00 78 1020.5
20180813071523 72 175 2.0 3.0 0.00 0.00 0.00 78 1020.5
20180813070521 72 172 0.0 2.0 0.00 0.00 0.00 78 1020.5
20180813065516 72 157 1.0 2.0 0.00 0.00 0.00 78 1020.6
20180813064529 72 169 1.0 2.0 0.00 0.00 0.00 77 1020.7